sensor_id;sensor_type;location;lat;lon;timestamp;temperature;humidity
12315;DHT22;23886;46.614;14.276;2023-05-07T00:00:54;12.70;99.90
12315;DHT22;23886;46.614;14.276;2023-05-07T00:03:23;12.70;99.90
12315;DHT22;23886;46.614;14.276;2023-05-07T00:05:50;12.70;99.90
12315;DHT22;23886;46.614;14.276;2023-05-07T00:08:18;12.70;99.90
12315;DHT22;23886;46.614;14.276;2023-05-07T00:10:46;12.80;99.90
12315;DHT22;23886;46.614;14.276;2023-05-07T00:13:13;12.70;99.90
12315;DHT22;23886;46.614;14.276;2023-05-07T00:15:40;12.70;99.90
12315;DHT22;23886;46.614;14.276;2023-05-07T00:18:07;12.70;99.90
12315;DHT22;23886;46.614;14.276;2023-05-07T00:20:35;12.80;99.90
12315;DHT22;23886;46.614;14.276;2023-05-07T00:23:02;12.80;99.90
12315;DHT22;23886;46.614;14.276;2023-05-07T00:25:29;12.80;99.90
12315;DHT22;23886;46.614;14.276;2023-05-07T00:27:56;12.80;99.90
12315;DHT22;23886;46.614;14.276;2023-05-07T00:30:28;12.80;99.90
12315;DHT22;23886;46.614;14.276;2023-05-07T00:32:55;12.80;99.90
12315;DHT22;23886;46.614;14.276;2023-05-07T00:35:22;12.80;99.90
12315;DHT22;23886;46.614;14.276;2023-05-07T00:37:50;12.90;99.90
12315;DHT22;23886;46.614;14.276;2023-05-07T00:40:17;12.80;99.90
12315;DHT22;23886;46.614;14.276;2023-05-07T00:42:44;12.80;99.90
12315;DHT22;23886;46.614;14.276;2023-05-07T00:45:12;12.70;99.90
12315;DHT22;23886;46.614;14.276;2023-05-07T00:47:40;12.80;99.90
12315;DHT22;23886;46.614;14.276;2023-05-07T00:50:08;12.70;99.90
12315;DHT22;23886;46.614;14.276;2023-05-07T00:52:36;12.70;99.90
12315;DHT22;23886;46.614;14.276;2023-05-07T00:55:07;12.70;99.90
12315;DHT22;23886;46.614;14.276;2023-05-07T00:57:36;12.70;99.90
12315;DHT22;23886;46.614;14.276;2023-05-07T01:00:04;12.70;99.90
12315;DHT22;23886;46.614;14.276;2023-05-07T01:02:33;12.70;99.90
12315;DHT22;23886;46.614;14.276;2023-05-07T01:05:00;12.70;99.90
12315;DHT22;23886;46.614;14.276;2023-05-07T01:07:28;12.60;99.90
12315;DHT22;23886;46.614;14.276;2023-05-07T01:09:56;12.60;99.90
12315;DHT22;23886;46.614;14.276;2023-05-07T01:12:25;12.50;99.90
12315;DHT22;23886;46.614;14.276;2023-05-07T01:14:53;12.50;99.90
12315;DHT22;23886;46.614;14.276;2023-05-07T01:17:20;12.40;99.90
12315;DHT22;23886;46.614;14.276;2023-05-07T01:19:47;12.40;99.90
12315;DHT22;23886;46.614;14.276;2023-05-07T01:22:16;12.50;99.90
12315;DHT22;23886;46.614;14.276;2023-05-07T01:24:48;12.50;99.90
12315;DHT22;23886;46.614;14.276;2023-05-07T01:27:16;12.50;99.90
12315;DHT22;23886;46.614;14.276;2023-05-07T01:29:43;12.40;99.90
12315;DHT22;23886;46.614;14.276;2023-05-07T01:32:10;12.50;99.90
12315;DHT22;23886;46.614;14.276;2023-05-07T01:34:39;12.50;99.90
12315;DHT22;23886;46.614;14.276;2023-05-07T01:37:06;12.60;99.90
12315;DHT22;23886;46.614;14.276;2023-05-07T01:39:36;12.70;99.90
12315;DHT22;23886;46.614;14.276;2023-05-07T01:42:04;12.80;99.90
12315;DHT22;23886;46.614;14.276;2023-05-07T01:44:32;12.80;99.90
12315;DHT22;23886;46.614;14.276;2023-05-07T01:47:01;12.70;99.90
12315;DHT22;23886;46.614;14.276;2023-05-07T01:49:29;12.50;99.90
12315;DHT22;23886;46.614;14.276;2023-05-07T01:51:57;12.60;99.90
12315;DHT22;23886;46.614;14.276;2023-05-07T01:54:25;12.60;99.90
12315;DHT22;23886;46.614;14.276;2023-05-07T01:56:55;12.50;99.90
12315;DHT22;23886;46.614;14.276;2023-05-07T01:59:24;12.30;99.90
12315;DHT22;23886;46.614;14.276;2023-05-07T02:01:51;12.30;99.90
12315;DHT22;23886;46.614;14.276;2023-05-07T02:04:18;12.30;99.90
12315;DHT22;23886;46.614;14.276;2023-05-07T02:06:45;12.30;99.90
12315;DHT22;23886;46.614;14.276;2023-05-07T02:09:13;12.40;99.90
12315;DHT22;23886;46.614;14.276;2023-05-07T02:11:40;12.40;99.90
12315;DHT22;23886;46.614;14.276;2023-05-07T02:14:07;12.30;99.90
12315;DHT22;23886;46.614;14.276;2023-05-07T02:16:36;12.20;99.90
12315;DHT22;23886;46.614;14.276;2023-05-07T02:19:03;12.30;99.90
12315;DHT22;23886;46.614;14.276;2023-05-07T02:21:30;12.30;99.90
12315;DHT22;23886;46.614;14.276;2023-05-07T02:23:56;12.20;99.90
12315;DHT22;23886;46.614;14.276;2023-05-07T02:26:23;12.20;99.90
12315;DHT22;23886;46.614;14.276;2023-05-07T02:28:51;12.20;99.90
12315;DHT22;23886;46.614;14.276;2023-05-07T02:31:19;12.40;99.90
12315;DHT22;23886;46.614;14.276;2023-05-07T02:33:47;12.50;99.90
12315;DHT22;23886;46.614;14.276;2023-05-07T02:36:14;12.60;99.90
12315;DHT22;23886;46.614;14.276;2023-05-07T02:38:41;12.50;99.90
12315;DHT22;23886;46.614;14.276;2023-05-07T02:41:08;12.50;99.90
12315;DHT22;23886;46.614;14.276;2023-05-07T02:43:35;12.60;99.90
12315;DHT22;23886;46.614;14.276;2023-05-07T02:46:03;12.50;99.90
12315;DHT22;23886;46.614;14.276;2023-05-07T02:48:30;12.40;99.90
12315;DHT22;23886;46.614;14.276;2023-05-07T02:50:59;12.30;99.90
12315;DHT22;23886;46.614;14.276;2023-05-07T02:53:26;12.30;99.90
12315;DHT22;23886;46.614;14.276;2023-05-07T02:55:55;12.40;99.90
12315;DHT22;23886;46.614;14.276;2023-05-07T02:58:23;12.30;99.90
12315;DHT22;23886;46.614;14.276;2023-05-07T03:00:50;12.50;99.90
12315;DHT22;23886;46.614;14.276;2023-05-07T03:03:17;12.50;99.90
12315;DHT22;23886;46.614;14.276;2023-05-07T03:05:44;12.40;99.90
12315;DHT22;23886;46.614;14.276;2023-05-07T03:08:13;12.30;99.90
12315;DHT22;23886;46.614;14.276;2023-05-07T03:10:40;12.40;99.90
12315;DHT22;23886;46.614;14.276;2023-05-07T03:13:07;12.30;99.90
12315;DHT22;23886;46.614;14.276;2023-05-07T03:15:34;12.30;99.90
12315;DHT22;23886;46.614;14.276;2023-05-07T03:18:01;12.30;99.90
12315;DHT22;23886;46.614;14.276;2023-05-07T03:20:28;12.30;99.90
12315;DHT22;23886;46.614;14.276;2023-05-07T03:22:55;12.30;99.90
12315;DHT22;23886;46.614;14.276;2023-05-07T03:25:24;12.30;99.90
12315;DHT22;23886;46.614;14.276;2023-05-07T03:27:51;12.50;99.90
12315;DHT22;23886;46.614;14.276;2023-05-07T03:30:18;12.50;99.90
12315;DHT22;23886;46.614;14.276;2023-05-07T03:32:45;12.40;99.90
12315;DHT22;23886;46.614;14.276;2023-05-07T03:35:12;12.50;99.90
12315;DHT22;23886;46.614;14.276;2023-05-07T03:37:39;12.50;99.90
12315;DHT22;23886;46.614;14.276;2023-05-07T03:40:07;12.50;99.90
12315;DHT22;23886;46.614;14.276;2023-05-07T03:42:37;12.40;99.90
12315;DHT22;23886;46.614;14.276;2023-05-07T03:45:04;12.40;99.90
12315;DHT22;23886;46.614;14.276;2023-05-07T03:47:31;12.30;99.90
12315;DHT22;23886;46.614;14.276;2023-05-07T03:49:58;12.30;99.90
12315;DHT22;23886;46.614;14.276;2023-05-07T03:52:25;12.30;99.90
12315;DHT22;23886;46.614;14.276;2023-05-07T03:54:52;12.30;99.90
12315;DHT22;23886;46.614;14.276;2023-05-07T03:57:19;12.50;99.90
12315;DHT22;23886;46.614;14.276;2023-05-07T03:59:48;12.50;99.90
12315;DHT22;23886;46.614;14.276;2023-05-07T04:02:15;12.60;99.90
12315;DHT22;23886;46.614;14.276;2023-05-07T04:04:42;12.70;99.90
12315;DHT22;23886;46.614;14.276;2023-05-07T04:07:09;12.50;99.90
12315;DHT22;23886;46.614;14.276;2023-05-07T04:09:36;12.50;99.90
12315;DHT22;23886;46.614;14.276;2023-05-07T04:12:03;12.40;99.90
12315;DHT22;23886;46.614;14.276;2023-05-07T04:14:30;12.50;99.90
12315;DHT22;23886;46.614;14.276;2023-05-07T04:17:00;12.40;99.90
12315;DHT22;23886;46.614;14.276;2023-05-07T04:19:28;12.30;99.90
12315;DHT22;23886;46.614;14.276;2023-05-07T04:21:55;12.40;99.90
12315;DHT22;23886;46.614;14.276;2023-05-07T04:24:22;12.40;99.90
12315;DHT22;23886;46.614;14.276;2023-05-07T04:26:49;12.40;99.90
12315;DHT22;23886;46.614;14.276;2023-05-07T04:29:16;12.40;99.90
12315;DHT22;23886;46.614;14.276;2023-05-07T04:31:43;12.50;99.90
12315;DHT22;23886;46.614;14.276;2023-05-07T04:34:12;12.50;99.90
12315;DHT22;23886;46.614;14.276;2023-05-07T04:36:39;12.60;99.90
12315;DHT22;23886;46.614;14.276;2023-05-07T04:39:07;12.60;99.90
12315;DHT22;23886;46.614;14.276;2023-05-07T04:41:35;12.60;99.90
12315;DHT22;23886;46.614;14.276;2023-05-07T04:44:02;12.70;99.90
12315;DHT22;23886;46.614;14.276;2023-05-07T04:46:32;12.80;99.90
12315;DHT22;23886;46.614;14.276;2023-05-07T04:48:59;12.70;99.90
12315;DHT22;23886;46.614;14.276;2023-05-07T04:51:27;12.80;99.90
12315;DHT22;23886;46.614;14.276;2023-05-07T04:53:54;12.70;99.90
12315;DHT22;23886;46.614;14.276;2023-05-07T04:56:21;12.80;99.90
12315;DHT22;23886;46.614;14.276;2023-05-07T04:58:48;12.90;99.90
12315;DHT22;23886;46.614;14.276;2023-05-07T05:01:15;13.00;99.90
12315;DHT22;23886;46.614;14.276;2023-05-07T05:03:42;13.00;99.90
12315;DHT22;23886;46.614;14.276;2023-05-07T05:06:09;12.90;99.90
12315;DHT22;23886;46.614;14.276;2023-05-07T05:08:38;12.90;99.90
12315;DHT22;23886;46.614;14.276;2023-05-07T05:11:05;13.00;99.90
12315;DHT22;23886;46.614;14.276;2023-05-07T05:13:32;12.90;99.90
12315;DHT22;23886;46.614;14.276;2023-05-07T05:15:59;12.90;99.90
12315;DHT22;23886;46.614;14.276;2023-05-07T05:18:26;12.90;99.90
12315;DHT22;23886;46.614;14.276;2023-05-07T05:20:53;12.90;99.90
12315;DHT22;23886;46.614;14.276;2023-05-07T05:23:20;13.00;99.90
12315;DHT22;23886;46.614;14.276;2023-05-07T05:25:48;13.10;99.90
12315;DHT22;23886;46.614;14.276;2023-05-07T05:28:15;13.10;99.90
12315;DHT22;23886;46.614;14.276;2023-05-07T05:30:42;13.00;99.90
12315;DHT22;23886;46.614;14.276;2023-05-07T05:33:09;13.00;99.90
12315;DHT22;23886;46.614;14.276;2023-05-07T05:35:36;13.10;99.90
12315;DHT22;23886;46.614;14.276;2023-05-07T05:38:03;13.10;99.90
12315;DHT22;23886;46.614;14.276;2023-05-07T05:40:30;13.10;99.90
12315;DHT22;23886;46.614;14.276;2023-05-07T05:42:59;13.20;99.90
12315;DHT22;23886;46.614;14.276;2023-05-07T05:45:26;13.20;99.90
12315;DHT22;23886;46.614;14.276;2023-05-07T05:47:53;13.20;99.90
12315;DHT22;23886;46.614;14.276;2023-05-07T05:50:20;13.10;99.90
12315;DHT22;23886;46.614;14.276;2023-05-07T05:52:47;13.10;99.90
12315;DHT22;23886;46.614;14.276;2023-05-07T05:55:14;13.20;99.90
12315;DHT22;23886;46.614;14.276;2023-05-07T05:57:41;13.20;99.90
12315;DHT22;23886;46.614;14.276;2023-05-07T06:00:11;13.40;99.90
12315;DHT22;23886;46.614;14.276;2023-05-07T06:02:38;13.40;99.90
12315;DHT22;23886;46.614;14.276;2023-05-07T06:05:05;13.60;99.90
12315;DHT22;23886;46.614;14.276;2023-05-07T06:07:32;13.50;99.90
12315;DHT22;23886;46.614;14.276;2023-05-07T06:10:00;13.60;99.90
12315;DHT22;23886;46.614;14.276;2023-05-07T06:12:27;13.50;99.90
12315;DHT22;23886;46.614;14.276;2023-05-07T06:14:54;13.60;99.90
12315;DHT22;23886;46.614;14.276;2023-05-07T06:17:22;13.70;99.90
12315;DHT22;23886;46.614;14.276;2023-05-07T06:19:49;13.60;99.90
12315;DHT22;23886;46.614;14.276;2023-05-07T06:22:16;13.50;99.90
12315;DHT22;23886;46.614;14.276;2023-05-07T06:24:43;13.40;99.90
12315;DHT22;23886;46.614;14.276;2023-05-07T06:27:10;13.50;99.90
12315;DHT22;23886;46.614;14.276;2023-05-07T06:29:37;13.60;99.90
12315;DHT22;23886;46.614;14.276;2023-05-07T06:32:07;13.70;99.90
12315;DHT22;23886;46.614;14.276;2023-05-07T06:34:36;13.70;99.90
12315;DHT22;23886;46.614;14.276;2023-05-07T06:37:03;13.80;99.90
12315;DHT22;23886;46.614;14.276;2023-05-07T06:39:31;13.90;99.90
12315;DHT22;23886;46.614;14.276;2023-05-07T06:41:58;13.80;99.90
12315;DHT22;23886;46.614;14.276;2023-05-07T06:44:25;14.00;99.90
12315;DHT22;23886;46.614;14.276;2023-05-07T06:46:52;14.20;99.90
12315;DHT22;23886;46.614;14.276;2023-05-07T06:49:19;14.20;99.90
12315;DHT22;23886;46.614;14.276;2023-05-07T06:51:47;14.20;99.90
12315;DHT22;23886;46.614;14.276;2023-05-07T06:54:14;14.20;99.90
12315;DHT22;23886;46.614;14.276;2023-05-07T06:56:41;14.30;99.90
12315;DHT22;23886;46.614;14.276;2023-05-07T06:59:08;14.40;99.90
12315;DHT22;23886;46.614;14.276;2023-05-07T07:01:35;14.70;99.90
12315;DHT22;23886;46.614;14.276;2023-05-07T07:04:03;14.90;99.90
12315;DHT22;23886;46.614;14.276;2023-05-07T07:06:30;14.80;99.90
12315;DHT22;23886;46.614;14.276;2023-05-07T07:08:59;15.10;99.90
12315;DHT22;23886;46.614;14.276;2023-05-07T07:11:26;15.30;99.90
12315;DHT22;23886;46.614;14.276;2023-05-07T07:13:53;15.30;99.90
12315;DHT22;23886;46.614;14.276;2023-05-07T07:16:21;15.30;99.90
12315;DHT22;23886;46.614;14.276;2023-05-07T07:18:48;15.30;99.90
12315;DHT22;23886;46.614;14.276;2023-05-07T07:21:15;15.00;99.90
12315;DHT22;23886;46.614;14.276;2023-05-07T07:23:41;15.00;99.90
12315;DHT22;23886;46.614;14.276;2023-05-07T07:26:10;15.10;99.90
12315;DHT22;23886;46.614;14.276;2023-05-07T07:28:42;14.90;99.90
12315;DHT22;23886;46.614;14.276;2023-05-07T07:31:09;14.90;99.90
12315;DHT22;23886;46.614;14.276;2023-05-07T07:33:36;15.00;99.90
12315;DHT22;23886;46.614;14.276;2023-05-07T07:36:05;14.90;99.90
12315;DHT22;23886;46.614;14.276;2023-05-07T07:38:32;14.90;99.90
12315;DHT22;23886;46.614;14.276;2023-05-07T07:41:00;15.10;99.90
12315;DHT22;23886;46.614;14.276;2023-05-07T07:43:28;15.00;99.90
12315;DHT22;23886;46.614;14.276;2023-05-07T07:45:55;15.10;99.90
12315;DHT22;23886;46.614;14.276;2023-05-07T07:48:22;15.00;99.90
12315;DHT22;23886;46.614;14.276;2023-05-07T07:50:49;15.50;99.90
12315;DHT22;23886;46.614;14.276;2023-05-07T07:53:17;15.70;99.90
12315;DHT22;23886;46.614;14.276;2023-05-07T07:55:44;15.80;99.90
12315;DHT22;23886;46.614;14.276;2023-05-07T07:58:11;16.00;99.90
12315;DHT22;23886;46.614;14.276;2023-05-07T08:00:39;16.30;99.90
12315;DHT22;23886;46.614;14.276;2023-05-07T08:03:09;16.70;99.90
12315;DHT22;23886;46.614;14.276;2023-05-07T08:05:36;16.90;99.90
12315;DHT22;23886;46.614;14.276;2023-05-07T08:08:04;17.10;99.90
12315;DHT22;23886;46.614;14.276;2023-05-07T08:10:32;17.50;99.90
12315;DHT22;23886;46.614;14.276;2023-05-07T08:13:00;17.70;99.90
12315;DHT22;23886;46.614;14.276;2023-05-07T08:15:29;17.70;99.90
12315;DHT22;23886;46.614;14.276;2023-05-07T08:17:58;17.40;99.90
12315;DHT22;23886;46.614;14.276;2023-05-07T08:20:26;17.00;99.90
12315;DHT22;23886;46.614;14.276;2023-05-07T08:22:53;16.30;99.90
12315;DHT22;23886;46.614;14.276;2023-05-07T08:25:20;15.90;99.90
12315;DHT22;23886;46.614;14.276;2023-05-07T08:27:46;16.10;99.90
12315;DHT22;23886;46.614;14.276;2023-05-07T08:30:14;15.60;99.90
12315;DHT22;23886;46.614;14.276;2023-05-07T08:32:41;15.70;99.90
12315;DHT22;23886;46.614;14.276;2023-05-07T08:35:10;15.70;99.90
12315;DHT22;23886;46.614;14.276;2023-05-07T08:37:37;15.70;99.90
12315;DHT22;23886;46.614;14.276;2023-05-07T08:40:05;15.80;99.90
12315;DHT22;23886;46.614;14.276;2023-05-07T08:42:35;15.70;99.90
12315;DHT22;23886;46.614;14.276;2023-05-07T08:45:04;15.70;99.90
12315;DHT22;23886;46.614;14.276;2023-05-07T08:47:42;15.80;99.90
12315;DHT22;23886;46.614;14.276;2023-05-07T08:50:11;16.30;99.90
12315;DHT22;23886;46.614;14.276;2023-05-07T08:52:39;16.50;99.90
12315;DHT22;23886;46.614;14.276;2023-05-07T08:55:07;16.50;99.90
12315;DHT22;23886;46.614;14.276;2023-05-07T08:57:35;16.40;99.90
12315;DHT22;23886;46.614;14.276;2023-05-07T09:00:02;16.50;99.90
12315;DHT22;23886;46.614;14.276;2023-05-07T09:02:29;16.40;99.90
12315;DHT22;23886;46.614;14.276;2023-05-07T09:04:56;16.60;99.90
12315;DHT22;23886;46.614;14.276;2023-05-07T09:07:25;16.80;99.90
12315;DHT22;23886;46.614;14.276;2023-05-07T09:09:52;16.60;99.90
12315;DHT22;23886;46.614;14.276;2023-05-07T09:12:21;16.60;99.90
12315;DHT22;23886;46.614;14.276;2023-05-07T09:14:48;16.70;99.90
12315;DHT22;23886;46.614;14.276;2023-05-07T09:17:15;16.50;99.90
12315;DHT22;23886;46.614;14.276;2023-05-07T09:19:44;16.60;99.90
12315;DHT22;23886;46.614;14.276;2023-05-07T09:22:12;16.50;99.90
12315;DHT22;23886;46.614;14.276;2023-05-07T09:24:40;16.70;99.90
12315;DHT22;23886;46.614;14.276;2023-05-07T09:27:07;16.40;99.90
12315;DHT22;23886;46.614;14.276;2023-05-07T09:29:38;16.50;99.90
12315;DHT22;23886;46.614;14.276;2023-05-07T09:32:06;16.70;99.90
12315;DHT22;23886;46.614;14.276;2023-05-07T09:34:34;16.60;99.90
12315;DHT22;23886;46.614;14.276;2023-05-07T09:37:02;16.80;99.90
12315;DHT22;23886;46.614;14.276;2023-05-07T09:39:40;16.70;99.90
12315;DHT22;23886;46.614;14.276;2023-05-07T09:42:07;16.60;99.90
12315;DHT22;23886;46.614;14.276;2023-05-07T09:44:34;16.40;99.90
12315;DHT22;23886;46.614;14.276;2023-05-07T09:47:04;16.60;99.90
12315;DHT22;23886;46.614;14.276;2023-05-07T09:49:34;16.60;99.90
12315;DHT22;23886;46.614;14.276;2023-05-07T09:52:02;16.80;99.90
12315;DHT22;23886;46.614;14.276;2023-05-07T09:54:33;16.70;99.90
12315;DHT22;23886;46.614;14.276;2023-05-07T09:57:03;17.20;99.90
12315;DHT22;23886;46.614;14.276;2023-05-07T09:59:32;17.00;99.90
12315;DHT22;23886;46.614;14.276;2023-05-07T10:02:00;17.30;99.90
12315;DHT22;23886;46.614;14.276;2023-05-07T10:04:28;18.10;99.90
12315;DHT22;23886;46.614;14.276;2023-05-07T10:06:55;18.50;99.90
12315;DHT22;23886;46.614;14.276;2023-05-07T10:09:23;19.10;99.90
12315;DHT22;23886;46.614;14.276;2023-05-07T10:11:51;19.50;99.90
12315;DHT22;23886;46.614;14.276;2023-05-07T10:14:20;19.50;99.90
12315;DHT22;23886;46.614;14.276;2023-05-07T10:16:48;19.50;99.90
12315;DHT22;23886;46.614;14.276;2023-05-07T10:19:15;19.00;99.90
12315;DHT22;23886;46.614;14.276;2023-05-07T10:21:48;19.00;99.90
12315;DHT22;23886;46.614;14.276;2023-05-07T10:24:21;19.30;99.90
12315;DHT22;23886;46.614;14.276;2023-05-07T10:26:53;19.20;99.90
12315;DHT22;23886;46.614;14.276;2023-05-07T10:29:33;18.60;99.90
12315;DHT22;23886;46.614;14.276;2023-05-07T10:32:13;18.80;99.90
12315;DHT22;23886;46.614;14.276;2023-05-07T10:34:49;18.80;99.90
12315;DHT22;23886;46.614;14.276;2023-05-07T10:37:17;19.20;99.90
12315;DHT22;23886;46.614;14.276;2023-05-07T10:39:45;19.70;99.90
12315;DHT22;23886;46.614;14.276;2023-05-07T10:42:13;19.60;99.90
12315;DHT22;23886;46.614;14.276;2023-05-07T10:44:42;20.00;99.90
12315;DHT22;23886;46.614;14.276;2023-05-07T10:47:10;20.20;99.90
12315;DHT22;23886;46.614;14.276;2023-05-07T10:49:46;20.30;99.90
12315;DHT22;23886;46.614;14.276;2023-05-07T10:52:33;20.20;99.90
12315;DHT22;23886;46.614;14.276;2023-05-07T10:55:19;20.00;99.90
12315;DHT22;23886;46.614;14.276;2023-05-07T10:57:47;19.80;99.90
12315;DHT22;23886;46.614;14.276;2023-05-07T11:00:43;20.00;99.90
12315;DHT22;23886;46.614;14.276;2023-05-07T11:03:13;19.50;99.90
12315;DHT22;23886;46.614;14.276;2023-05-07T11:05:41;18.80;99.90
12315;DHT22;23886;46.614;14.276;2023-05-07T11:08:09;19.10;99.90
12315;DHT22;23886;46.614;14.276;2023-05-07T11:10:57;19.50;99.90
12315;DHT22;23886;46.614;14.276;2023-05-07T11:13:44;19.90;99.90
12315;DHT22;23886;46.614;14.276;2023-05-07T11:16:19;19.60;99.90
12315;DHT22;23886;46.614;14.276;2023-05-07T11:18:47;20.10;99.90
12315;DHT22;23886;46.614;14.276;2023-05-07T11:21:33;19.80;99.90
12315;DHT22;23886;46.614;14.276;2023-05-07T11:24:01;19.90;99.90
12315;DHT22;23886;46.614;14.276;2023-05-07T11:26:30;20.10;99.90
12315;DHT22;23886;46.614;14.276;2023-05-07T11:28:58;20.60;99.90
12315;DHT22;23886;46.614;14.276;2023-05-07T11:31:28;20.80;99.90
12315;DHT22;23886;46.614;14.276;2023-05-07T11:33:55;20.80;99.90
12315;DHT22;23886;46.614;14.276;2023-05-07T11:36:24;20.60;99.90
12315;DHT22;23886;46.614;14.276;2023-05-07T11:38:51;20.70;99.90
12315;DHT22;23886;46.614;14.276;2023-05-07T11:41:18;20.40;99.90
12315;DHT22;23886;46.614;14.276;2023-05-07T11:43:57;20.30;99.90
12315;DHT22;23886;46.614;14.276;2023-05-07T11:46:24;20.30;99.90
12315;DHT22;23886;46.614;14.276;2023-05-07T11:48:52;20.80;99.90
12315;DHT22;23886;46.614;14.276;2023-05-07T11:51:20;20.80;99.90
12315;DHT22;23886;46.614;14.276;2023-05-07T11:53:47;21.00;99.90
12315;DHT22;23886;46.614;14.276;2023-05-07T11:56:16;21.10;99.90
12315;DHT22;23886;46.614;14.276;2023-05-07T11:58:45;21.30;99.90
12315;DHT22;23886;46.614;14.276;2023-05-07T12:01:13;21.70;99.90
12315;DHT22;23886;46.614;14.276;2023-05-07T12:03:42;22.30;99.90
12315;DHT22;23886;46.614;14.276;2023-05-07T12:06:11;22.70;99.90
12315;DHT22;23886;46.614;14.276;2023-05-07T12:08:39;22.80;99.90
12315;DHT22;23886;46.614;14.276;2023-05-07T12:11:11;23.10;99.90
12315;DHT22;23886;46.614;14.276;2023-05-07T12:13:39;23.40;99.90
12315;DHT22;23886;46.614;14.276;2023-05-07T12:16:06;22.60;99.90
12315;DHT22;23886;46.614;14.276;2023-05-07T12:18:35;22.90;99.90
12315;DHT22;23886;46.614;14.276;2023-05-07T12:21:04;22.60;99.90
12315;DHT22;23886;46.614;14.276;2023-05-07T12:23:33;23.60;99.90
12315;DHT22;23886;46.614;14.276;2023-05-07T12:26:01;23.00;99.90
12315;DHT22;23886;46.614;14.276;2023-05-07T12:28:28;23.20;99.90
12315;DHT22;23886;46.614;14.276;2023-05-07T12:30:57;23.00;99.90
12315;DHT22;23886;46.614;14.276;2023-05-07T12:33:25;22.60;99.90
12315;DHT22;23886;46.614;14.276;2023-05-07T12:35:55;22.10;99.90
12315;DHT22;23886;46.614;14.276;2023-05-07T12:38:22;21.90;99.90
12315;DHT22;23886;46.614;14.276;2023-05-07T12:40:54;22.20;99.90
12315;DHT22;23886;46.614;14.276;2023-05-07T12:43:24;22.90;99.90
12315;DHT22;23886;46.614;14.276;2023-05-07T12:45:52;23.90;99.90
12315;DHT22;23886;46.614;14.276;2023-05-07T12:48:20;24.00;99.90
12315;DHT22;23886;46.614;14.276;2023-05-07T12:50:49;24.30;99.90
12315;DHT22;23886;46.614;14.276;2023-05-07T12:53:16;24.40;99.90
12315;DHT22;23886;46.614;14.276;2023-05-07T12:55:45;24.20;99.90
12315;DHT22;23886;46.614;14.276;2023-05-07T12:58:18;24.40;99.90
12315;DHT22;23886;46.614;14.276;2023-05-07T13:00:48;25.90;99.90
12315;DHT22;23886;46.614;14.276;2023-05-07T13:03:21;26.40;99.60
12315;DHT22;23886;46.614;14.276;2023-05-07T13:05:50;25.30;97.60
12315;DHT22;23886;46.614;14.276;2023-05-07T13:08:35;25.80;99.60
12315;DHT22;23886;46.614;14.276;2023-05-07T13:11:03;25.50;99.90
12315;DHT22;23886;46.614;14.276;2023-05-07T13:13:33;25.80;98.30
12315;DHT22;23886;46.614;14.276;2023-05-07T13:16:01;25.20;98.80
12315;DHT22;23886;46.614;14.276;2023-05-07T13:18:30;25.10;98.80
12315;DHT22;23886;46.614;14.276;2023-05-07T13:20:57;24.80;99.20
12315;DHT22;23886;46.614;14.276;2023-05-07T13:23:24;24.90;99.50
12315;DHT22;23886;46.614;14.276;2023-05-07T13:25:51;25.20;98.50
12315;DHT22;23886;46.614;14.276;2023-05-07T13:28:19;24.70;98.60
12315;DHT22;23886;46.614;14.276;2023-05-07T13:30:48;24.20;99.90
12315;DHT22;23886;46.614;14.276;2023-05-07T13:33:17;24.50;99.20
12315;DHT22;23886;46.614;14.276;2023-05-07T13:35:44;24.30;99.40
12315;DHT22;23886;46.614;14.276;2023-05-07T13:38:11;23.10;99.90
12315;DHT22;23886;46.614;14.276;2023-05-07T13:40:38;22.30;99.90
12315;DHT22;23886;46.614;14.276;2023-05-07T13:43:06;21.90;99.90
12315;DHT22;23886;46.614;14.276;2023-05-07T13:45:33;21.60;99.90
12315;DHT22;23886;46.614;14.276;2023-05-07T13:48:01;21.20;99.90
12315;DHT22;23886;46.614;14.276;2023-05-07T13:50:28;21.00;99.90
12315;DHT22;23886;46.614;14.276;2023-05-07T13:52:56;21.00;99.90
12315;DHT22;23886;46.614;14.276;2023-05-07T13:55:24;20.90;99.90
12315;DHT22;23886;46.614;14.276;2023-05-07T13:57:55;20.70;99.90
12315;DHT22;23886;46.614;14.276;2023-05-07T14:00:22;20.60;99.90
12315;DHT22;23886;46.614;14.276;2023-05-07T14:02:49;20.40;99.90
12315;DHT22;23886;46.614;14.276;2023-05-07T14:05:18;20.30;99.90
12315;DHT22;23886;46.614;14.276;2023-05-07T14:07:45;20.20;99.90
12315;DHT22;23886;46.614;14.276;2023-05-07T14:10:12;20.10;99.90
12315;DHT22;23886;46.614;14.276;2023-05-07T14:12:39;20.00;99.90
12315;DHT22;23886;46.614;14.276;2023-05-07T14:15:07;20.00;99.90
12315;DHT22;23886;46.614;14.276;2023-05-07T14:17:34;19.70;99.90
12315;DHT22;23886;46.614;14.276;2023-05-07T14:20:01;19.50;99.90
12315;DHT22;23886;46.614;14.276;2023-05-07T14:22:30;19.50;99.90
12315;DHT22;23886;46.614;14.276;2023-05-07T14:24:57;19.50;99.90
12315;DHT22;23886;46.614;14.276;2023-05-07T14:27:24;19.40;99.90
12315;DHT22;23886;46.614;14.276;2023-05-07T14:29:51;19.10;99.90
12315;DHT22;23886;46.614;14.276;2023-05-07T14:32:18;19.00;99.90
12315;DHT22;23886;46.614;14.276;2023-05-07T14:34:45;18.90;99.90
12315;DHT22;23886;46.614;14.276;2023-05-07T14:37:12;18.90;99.90
12315;DHT22;23886;46.614;14.276;2023-05-07T14:39:41;18.80;99.90
12315;DHT22;23886;46.614;14.276;2023-05-07T14:42:08;18.60;99.90
12315;DHT22;23886;46.614;14.276;2023-05-07T14:44:35;18.60;99.90
12315;DHT22;23886;46.614;14.276;2023-05-07T14:47:02;18.50;99.90
12315;DHT22;23886;46.614;14.276;2023-05-07T14:49:29;18.30;99.90
12315;DHT22;23886;46.614;14.276;2023-05-07T14:51:57;18.10;99.90
12315;DHT22;23886;46.614;14.276;2023-05-07T14:54:25;17.90;99.90
12315;DHT22;23886;46.614;14.276;2023-05-07T14:56:55;17.30;99.90
12315;DHT22;23886;46.614;14.276;2023-05-07T14:59:22;16.60;99.90
12315;DHT22;23886;46.614;14.276;2023-05-07T15:01:50;16.00;99.90
12315;DHT22;23886;46.614;14.276;2023-05-07T15:04:17;15.60;99.90
12315;DHT22;23886;46.614;14.276;2023-05-07T15:06:44;15.20;99.90
12315;DHT22;23886;46.614;14.276;2023-05-07T15:09:11;14.90;99.90
12315;DHT22;23886;46.614;14.276;2023-05-07T15:11:39;14.70;99.90
12315;DHT22;23886;46.614;14.276;2023-05-07T15:14:07;14.60;99.90
12315;DHT22;23886;46.614;14.276;2023-05-07T15:16:34;14.50;99.90
12315;DHT22;23886;46.614;14.276;2023-05-07T15:19:01;14.40;99.90
12315;DHT22;23886;46.614;14.276;2023-05-07T15:21:28;14.20;99.90